Darlington, South Carolina
Current Conditions -  °F | °C
As of 6:15 AM on Wednesday 26 Nov 2014 (Local Time) from KUDG Reporting Station
Overcast Overcast  
Wind Chill: 50°   Ceiling: 600
Heat Index: 50°   Visibility: 7mi
Dew Point: 45°   Wind: 15mph
Humidity: 82%   Direction: 340°NNW
Pressure: 29.89"   Gusts: 22mph
Location:  34.3°N, 79.87°W
Report Text: KUDG 261115Z AUTO 34013G19KT 7SM BKN006 OVC013 10/07 A2989 RMK AO1 P0002
Loading
Personal Weather Stations






























Interactive Weather Map New forecast layout! Learn more

10-Day Weather Forecast

Advertisements
Track Severe Weather on mobile